Time;durP1;ratioP1;P1;durP2;ratioP2;P2;SDS_P1;SDS_P2;PMS_P1;PMS_P2;Temp;Humidity;BMP_temperature;BMP_pressure;BME280_temperature;BME280_humidity;BME280_pressure;Samples;Min_cycle;Max_cycle;Signal;HPM_P1;HPM_P2
2021/04/03 00:01:17;;;;;;;24.80;17.42;;;;;;;11.69;88.27;99760.03;3555080;40;20089;-67
2021/04/03 00:03:43;;;;;;;22.33;18.30;;;;;;;11.53;89.01;99757.16;3555998;40;20085;-67
2021/04/03 00:06:09;;;;;;;26.35;19.05;;;;;;;11.85;88.96;99761.97;3553929;40;20164;-68
2021/04/03 00:08:34;;;;;;;24.23;18.58;;;;;;;11.73;87.72;99756.47;3556381;40;20385;-67
2021/04/03 00:11:04;;;;;;;23.30;18.88;;;;;;;11.74;88.38;99759.00;3546165;40;20051;-68
2021/04/03 00:13:32;;;;;;;26.00;19.23;;;;;;;11.61;87.78;99757.72;3555461;40;20050;-67
2021/04/03 00:15:59;;;;;;;25.48;20.80;;;;;;;11.70;88.24;99762.53;3546042;40;20366;-68
2021/04/03 00:18:25;;;;;;;26.85;20.55;;;;;;;11.38;88.89;99761.97;3555416;40;20042;-68
2021/04/03 00:20:52;;;;;;;24.80;19.38;;;;;;;11.32;89.52;99770.66;3556340;40;20060;-67
2021/04/03 00:23:19;;;;;;;25.23;18.75;;;;;;;11.28;90.19;99761.47;3546529;40;20092;-66
2021/04/03 00:25:45;;;;;;;26.10;20.10;;;;;;;11.35;88.84;99765.44;3556168;40;20141;-68
2021/04/03 00:28:11;;;;;;;27.63;20.40;;;;;;;11.39;89.31;99761.09;3556219;40;20042;-68
2021/04/03 00:30:38;;;;;;;24.13;19.08;;;;;;;11.20;90.35;99754.09;3546562;40;20054;-68
2021/04/03 00:33:06;;;;;;;23.88;18.48;;;;;;;11.13;90.13;99749.28;3556103;40;20038;-68
2021/04/03 00:35:42;;;;;;;23.70;19.23;;;;;;;11.32;90.07;99751.13;3556906;40;20050;-68
2021/04/03 00:38:09;;;;;;;25.55;19.60;;;;;;;11.20;90.25;99761.72;3555018;40;20038;-68
2021/04/03 00:40:41;;;;;;;24.50;18.70;;;;;;;11.51;88.53;99753.03;3555629;40;20057;-68
2021/04/03 00:43:19;;;;;;;26.35;18.23;;;;;;;11.47;87.63;99759.94;3555456;40;20300;-68
2021/04/03 00:45:46;;;;;;;26.20;19.42;;;;;;;11.59;88.36;99749.31;3555587;40;20082;-68
2021/04/03 00:48:12;;;;;;;25.85;19.80;;;;;;;11.20;89.56;99766.81;3555494;40;20055;-68
2021/04/03 00:50:44;;;;;;;30.98;21.80;;;;;;;11.41;89.50;99754.25;3555251;40;20419;-68
2021/04/03 00:53:12;;;;;;;;;;;;;;;11.77;87.66;99758.88;3556359;40;20317;-68
2021/04/03 00:55:38;;;;;;;24.55;19.48;;;;;;;11.09;89.64;99768.06;3545034;40;20315;-68
2021/04/03 00:58:05;;;;;;;26.50;19.45;;;;;;;11.72;87.40;99763.31;3546169;40;20065;-68
2021/04/03 01:03:52;;;;;;;25.80;19.38;;;;;;;11.59;87.39;99744.22;3564772;40;20195;-68
2021/04/03 01:06:18;;;;;;;24.63;19.80;;;;;;;10.95;89.38;99760.06;3572052;40;20083;-68
2021/04/03 01:08:45;;;;;;;25.27;20.35;;;;;;;11.08;90.21;99751.13;3575707;40;20395;-69
2021/04/03 01:11:10;;;;;;;27.20;20.55;;;;;;;11.40;88.19;99733.03;3564777;40;20132;-68
2021/04/03 01:13:42;;;;;;;28.33;20.60;;;;;;;11.43;87.13;99732.91;3566555;40;20250;-68
2021/04/03 01:16:37;;;;;;;30.45;23.02;;;;;;;11.21;90.04;99744.75;3576359;40;20163;-68
2021/04/03 01:19:25;;;;;;;35.20;24.60;;;;;;;11.51;88.90;99741.13;3544463;40;20062;-70
2021/04/03 01:21:50;;;;;;;31.77;23.88;;;;;;;11.32;88.18;99738.41;3576154;40;20061;-67
2021/04/03 01:24:41;;;;;;;33.60;22.67;;;;;;;11.22;88.65;99733.69;3575032;40;20423;-68
2021/04/03 01:27:13;;;;;;;29.08;21.73;;;;;;;11.30;88.63;99739.34;3575018;40;20049;-72
2021/04/03 01:29:46;;;;;;;28.48;21.27;;;;;;;11.21;88.77;99730.28;3575952;40;20150;-67
2021/04/03 01:32:16;;;;;;;27.27;20.88;;;;;;;11.48;88.01;99733.59;3575789;40;20053;-68
2021/04/03 01:34:45;;;;;;;28.58;21.52;;;;;;;11.28;89.16;99723.28;3574920;40;20427;-68
2021/04/03 01:37:18;;;;;;;27.05;20.85;;;;;;;11.30;87.86;99729.16;3575718;40;20194;-67
2021/04/03 01:39:48;;;;;;;27.58;19.80;;;;;;;11.33;88.70;99727.31;3575046;40;20304;-67
2021/04/03 01:42:19;;;;;;;26.70;20.05;;;;;;;11.46;88.93;99714.16;3575901;40;20046;-68
2021/04/03 01:44:54;;;;;;;26.48;19.70;;;;;;;11.25;88.61;99716.59;3574934;40;20056;-67
2021/04/03 01:47:26;;;;;;;25.02;19.48;;;;;;;11.33;87.53;99711.22;3575436;40;20068;-67
2021/04/03 01:49:54;;;;;;;28.40;20.40;;;;;;;11.45;87.71;99715.88;3564825;40;20133;-67
2021/04/03 01:52:26;;;;;;;27.85;20.90;;;;;;;11.54;87.65;99713.03;3576224;40;20081;-67
2021/04/03 01:54:57;;;;;;;27.95;20.58;;;;;;;11.37;88.90;99717.06;3575029;40;20368;-69
2021/04/03 01:57:29;;;;;;;25.87;20.40;;;;;;;11.39;89.19;99725.47;3565367;40;20069;-68
2021/04/03 01:59:55;;;;;;;32.60;21.85;;;;;;;11.26;89.30;99718.25;3575196;40;20065;-68
2021/04/03 02:02:21;;;;;;;26.27;20.38;;;;;;;10.86;90.02;99707.78;3575145;40;20068;-68
2021/04/03 02:04:48;;;;;;;23.30;19.55;;;;;;;10.77;91.74;99710.63;3575739;40;20057;-67
2021/04/03 02:07:18;;;;;;;27.15;21.10;;;;;;;10.84;91.26;99701.91;3563120;40;20066;-68
2021/04/03 02:09:52;;;;;;;26.23;19.85;;;;;;;11.20;89.16;99710.84;3564084;40;20149;-68
2021/04/03 02:12:19;;;;;;;30.17;21.42;;;;;;;11.30;88.15;99704.53;3564105;40;20095;-68
2021/04/03 02:14:50;;;;;;;28.70;20.95;;;;;;;11.14;87.78;99711.06;3553929;40;20070;-67
2021/04/03 02:17:18;;;;;;;27.40;20.52;;;;;;;10.90;90.22;99706.78;3564177;40;20113;-68
2021/04/03 02:19:44;;;;;;;25.67;20.15;;;;;;;10.85;90.24;99703.59;3556059;40;20046;-68
2021/04/03 02:22:19;;;;;;;29.60;21.52;;;;;;;10.88;89.24;99695.84;3557333;40;20140;-67
2021/04/03 02:24:46;;;;;;;28.30;21.30;;;;;;;11.34;88.29;99708.66;3565378;40;20061;-68
2021/04/03 02:27:12;;;;;;;26.30;21.05;;;;;;;11.38;87.40;99706.81;3564413;40;20096;-68
2021/04/03 02:29:38;;;;;;;28.02;20.92;;;;;;;11.00;87.99;99713.22;3564599;40;20050;-68
2021/04/03 02:32:07;;;;;;;32.53;20.80;;;;;;;11.13;89.15;99713.66;3555791;40;20074;-67
2021/04/03 02:34:33;;;;;;;25.08;20.08;;;;;;;11.04;88.92;99716.50;3564393;40;20172;-68
2021/04/03 02:36:59;;;;;;;30.70;20.65;;;;;;;11.10;88.42;99718.84;3555308;40;20070;-68
2021/04/03 02:39:25;;;;;;;27.75;20.45;;;;;;;11.03;88.34;99720.75;3577135;40;20060;-68
2021/04/03 02:41:57;;;;;;;24.75;20.40;;;;;;;10.71;90.58;99721.00;3576196;40;20588;-67
2021/04/03 02:44:34;;;;;;;26.33;21.38;;;;;;;10.74;89.18;99725.97;3577113;40;20042;-69
2021/04/03 02:47:10;;;;;;;24.58;19.75;;;;;;;10.98;89.78;99726.88;3576037;40;20077;-67
2021/04/03 02:50:04;;;;;;;25.50;19.08;;;;;;;10.95;87.96;99712.53;3576827;40;20060;-68
2021/04/03 02:52:33;;;;;;;22.63;19.20;;;;;;;10.55;89.02;99714.75;3544603;40;20086;-68
2021/04/03 02:55:02;;;;;;;25.65;19.38;;;;;;;10.64;89.35;99711.06;3544585;40;20051;-67
2021/04/03 02:57:29;;;;;;;24.45;18.50;;;;;;;10.89;88.34;99714.47;3545423;40;20138;-67
2021/04/03 02:59:56;;;;;;;24.70;18.90;;;;;;;10.40;90.41;99728.78;3544131;40;20085;-67
2021/04/03 03:02:24;;;;;;;25.77;19.00;;;;;;;10.67;89.98;99729.63;3545582;40;20062;-67
2021/04/03 03:04:52;;;;;;;25.13;19.75;;;;;;;10.99;88.08;99731.09;3544285;40;20082;-66
2021/04/03 03:07:18;;;;;;;27.10;19.38;;;;;;;10.67;88.14;99728.78;3545201;40;20057;-67
2021/04/03 03:09:49;;;;;;;28.42;21.20;;;;;;;10.01;92.34;99726.59;3544938;40;20306;-67
2021/04/03 03:12:17;;;;;;;32.58;22.38;;;;;;;10.40;91.28;99735.56;3544669;40;20220;-67
2021/04/03 03:14:44;;;;;;;34.35;23.92;;;;;;;10.23;91.11;99732.72;3544420;40;20137;-67
2021/04/03 03:17:11;;;;;;;36.05;24.92;;;;;;;10.54;89.72;99722.44;3545209;40;20050;-68
2021/04/03 03:19:39;;;;;;;31.27;23.77;;;;;;;10.91;88.55;99723.72;3544166;40;20107;-68
2021/04/03 03:22:07;;;;;;;35.17;24.60;;;;;;;10.34;89.20;99713.72;3535254;40;20272;-68
2021/04/03 03:24:34;;;;;;;34.65;25.25;;;;;;;10.40;88.94;99727.94;3544132;40;20185;-68
2021/04/03 03:27:02;;;;;;;34.00;26.15;;;;;;;10.03;90.79;99727.38;3535697;40;20101;-66
2021/04/03 03:29:30;;;;;;;34.80;25.65;;;;;;;10.18;90.35;99720.13;3560976;40;20187;-67
2021/04/03 03:31:56;;;;;;;32.20;24.23;;;;;;;10.54;90.79;99712.28;3575493;40;20140;-68
2021/04/03 03:34:22;;;;;;;34.03;24.55;;;;;;;10.63;89.24;99717.03;3566856;40;20072;-68
2021/04/03 03:36:48;;;;;;;167.90;87.70;;;;;;;10.56;88.70;99720.69;3576416;40;20050;-67
2021/04/03 03:39:15;;;;;;;93.22;54.30;;;;;;;10.66;88.17;99712.69;3577429;40;20403;-69
2021/04/03 03:41:41;;;;;;;65.82;40.92;;;;;;;10.43;89.49;99718.53;3575853;40;20060;-67
2021/04/03 03:44:08;;;;;;;38.00;26.77;;;;;;;10.63;89.52;99711.97;3576779;40;20053;-68
2021/04/03 03:46:34;;;;;;;35.65;25.58;;;;;;;10.34;90.04;99718.78;3566394;40;20050;-68
2021/04/03 03:49:01;;;;;;;35.88;26.83;;;;;;;10.30;90.21;99718.97;3577758;40;20364;-68
2021/04/03 03:51:26;;;;;;;35.78;26.60;;;;;;;10.54;88.39;99719.91;3575887;40;20132;-68
2021/04/03 03:53:52;;;;;;;37.53;26.98;;;;;;;10.33;88.96;99712.06;3576482;40;20092;-68
2021/04/03 03:56:18;;;;;;;34.83;26.10;;;;;;;10.23;90.33;99723.38;3567250;40;20143;-68
2021/04/03 03:58:44;;;;;;;39.97;27.58;;;;;;;10.12;89.50;99712.72;3576975;40;20100;-68
2021/04/03 04:01:10;;;;;;;37.20;26.58;;;;;;;10.31;89.57;99707.91;3576804;40;20042;-68
2021/04/03 04:03:36;;;;;;;46.90;28.83;;;;;;;9.79;91.76;99718.75;3575616;40;20049;-69
2021/04/03 04:11:52;;;;;;;37.63;25.58;;;;;;;10.11;88.29;99728.00;3580445;40;20197;-68
2021/04/03 04:14:18;;;;;;;33.40;25.33;;;;;;;10.23;87.08;99725.09;3564257;40;20077;-68
2021/04/03 04:16:44;;;;;;;29.30;22.77;;;;;;;9.74;88.50;99720.63;3573347;40;20573;-68
2021/04/03 04:19:11;;;;;;;29.73;20.45;;;;;;;9.14;91.81;99728.19;3574773;40;20069;-67
2021/04/03 04:21:36;;;;;;;27.48;19.45;;;;;;;9.21;92.23;99718.75;3575130;40;20068;-68
2021/04/03 04:24:02;;;;;;;25.48;20.45;;;;;;;9.83;90.94;99716.97;3576860;40;20316;-68
2021/04/03 04:26:28;;;;;;;26.90;20.77;;;;;;;9.22;91.45;99712.78;3576081;40;20390;-66
2021/04/03 04:28:53;;;;;;;38.30;27.55;;;;;;;9.36;92.00;99721.69;3576733;40;20045;-68
2021/04/03 04:31:19;;;;;;;37.58;27.63;;;;;;;9.14;92.65;99729.91;3575431;40;20102;-68
2021/04/03 04:33:45;;;;;;;36.08;24.65;;;;;;;9.48;92.22;99733.19;3575863;40;20099;-68
2021/04/03 04:36:10;;;;;;;30.83;23.95;;;;;;;9.30;92.69;99733.69;3577127;40;20057;-69
2021/04/03 04:38:37;;;;;;;30.08;23.30;;;;;;;9.80;91.08;99735.69;3566718;40;20067;-68
2021/04/03 04:41:02;;;;;;;34.78;25.05;;;;;;;10.03;90.02;99750.22;3576847;40;20398;-68
2021/04/03 04:43:28;;;;;;;36.67;25.42;;;;;;;9.71;91.41;99745.22;3575376;40;20057;-68
2021/04/03 04:45:54;;;;;;;35.55;24.40;;;;;;;9.60;91.79;99753.16;3576812;40;20295;-69
2021/04/03 04:48:21;;;;;;;35.42;24.00;;;;;;;10.02;90.13;99756.19;3566399;40;20077;-68
2021/04/03 04:50:46;;;;;;;31.63;24.42;;;;;;;10.46;89.72;99759.06;3563241;40;20149;-68
2021/04/03 04:53:13;;;;;;;36.78;24.60;;;;;;;10.42;89.06;99761.75;3576609;40;20156;-69
2021/04/03 04:55:38;;;;;;;33.35;24.33;;;;;;;10.69;88.75;99758.38;3579993;40;20059;-68
2021/04/03 04:58:04;;;;;;;30.98;24.60;;;;;;;10.06;89.67;99753.50;3580773;40;20065;-68
2021/04/03 05:00:30;;;;;;;30.88;23.40;;;;;;;10.36;89.95;99760.22;3557954;40;20058;-70
2021/04/03 05:02:55;;;;;;;32.42;24.02;;;;;;;10.33;90.60;99770.50;3562506;40;20081;-70
2021/04/03 05:05:21;;;;;;;33.58;23.70;;;;;;;10.45;89.56;99757.44;3559436;40;20411;-69
2021/04/03 05:07:46;;;;;;;35.67;24.58;;;;;;;10.19;91.79;99759.09;3560270;40;20062;-69
2021/04/03 05:10:14;;;;;;;34.08;25.05;;;;;;;10.15;92.30;99760.88;3563702;40;20054;-70
2021/04/03 05:15:09;;;;;;;30.75;24.52;;;;;;;10.54;89.08;99746.13;3577923;40;20065;-71
2021/04/03 05:17:34;;;;;;;31.45;24.08;;;;;;;10.46;89.21;99740.44;3581232;40;20057;-71
2021/04/03 05:20:01;;;;;;;32.15;23.00;;;;;;;10.74;90.35;99761.56;3582589;40;20057;-69
2021/04/03 05:22:33;;;;;;;30.33;22.38;;;;;;;10.87;88.58;99751.84;3582096;40;20131;-68
2021/04/03 05:25:00;;;;;;;26.75;22.42;;;;;;;10.87;89.06;99762.03;3578257;40;20080;-68
2021/04/03 05:27:26;;;;;;;29.98;23.10;;;;;;;10.81;91.08;99757.13;3579566;40;20059;-70
2021/04/03 05:29:51;;;;;;;28.77;23.08;;;;;;;10.96;89.84;99749.00;3578167;40;20171;-70
2021/04/03 05:32:17;;;;;;;34.85;25.48;;;;;;;11.08;89.77;99740.94;3576205;40;20059;-69
2021/04/03 05:34:43;;;;;;;34.25;25.08;;;;;;;11.24;89.24;99752.28;3575226;40;20391;-69
2021/04/03 05:37:08;;;;;;;30.98;24.23;;;;;;;11.09;88.98;99752.81;3570507;40;20099;-69
2021/04/03 05:39:39;;;;;;;34.85;26.15;;;;;;;10.97;90.97;99748.13;3582156;40;20064;-70
2021/04/03 05:42:13;;;;;;;35.65;27.02;;;;;;;10.91;90.22;99763.59;3583961;40;20061;-70
2021/04/03 05:44:40;;;;;;;30.92;24.52;;;;;;;11.10;89.66;99757.81;3559108;40;20058;-69
2021/04/03 05:47:08;;;;;;;34.53;24.30;;;;;;;11.53;89.00;99752.06;3560821;40;20086;-69
2021/04/03 05:49:34;;;;;;;35.05;25.85;;;;;;;11.47;89.37;99754.03;3560530;40;20066;-71
2021/04/03 05:52:01;;;;;;;35.33;25.95;;;;;;;11.54;90.14;99751.19;3562477;40;20061;-70
2021/04/03 05:54:26;;;;;;;33.97;25.58;;;;;;;11.73;89.08;99757.31;3560642;40;20070;-70
2021/04/03 05:59:21;;;;;;;42.08;28.35;;;;;;;11.33;90.37;99740.06;3571450;39;20067;-70
2021/04/03 06:01:46;;;;;;;43.17;30.52;;;;;;;11.71;87.68;99754.00;3571904;40;20073;-70
2021/04/03 06:04:15;;;;;;;44.10;29.58;;;;;;;11.80;88.60;99773.22;3566658;40;20076;-69
2021/04/03 06:06:42;;;;;;;44.85;29.45;;;;;;;12.35;86.63;99775.38;3548577;40;20098;-70
2021/04/03 06:09:07;;;;;;;42.38;31.75;;;;;;;12.13;87.64;99775.34;3555505;40;20138;-74
2021/04/03 06:16:33;;;;;;;36.55;27.48;;;;;;;12.36;86.93;99773.66;3574085;40;25113;-71
2021/04/03 06:19:02;;;;;;;36.20;26.25;;;;;;;12.43;88.38;99775.91;3906335;34;21039;31
2021/04/03 06:21:31;;;;;;;32.22;23.77;;;;;;;12.37;86.64;99755.75;3763130;34;20373;31
2021/04/03 06:24:36;;;;;;;37.83;25.52;;;;;;;12.63;87.15;99783.59;3731181;34;20098;31
2021/04/03 06:34:35;;;;;;;26.70;21.60;;;;;;;12.60;86.74;99785.41;4016823;34;20052;31
2021/04/03 06:37:08;;;;;;;33.47;24.15;;;;;;;13.03;85.93;99793.03;3952145;34;20054;31
2021/04/03 06:54:31;;;;;;;25.48;20.83;;;;;;;13.94;82.00;99795.88;3583836;40;20514;-73
2021/04/03 07:01:57;;;;;;;29.15;20.85;;;;;;;14.22;81.74;99803.13;3584833;40;20411;-73
2021/04/03 07:09:24;;;;;;;26.10;18.60;;;;;;;14.00;81.96;99811.88;4006449;34;20147;31
2021/04/03 07:12:16;;;;;;;25.73;19.02;;;;;;;14.67;79.40;99815.56;4077160;34;20145;31
2021/04/03 07:17:16;;;;;;;24.70;17.75;;;;;;;15.82;74.03;99784.19;4108432;34;20042;31
2021/04/03 07:27:38;;;;;;;20.20;16.40;;;;;;;16.46;71.81;99798.59;4091863;34;21455;31
2021/04/03 07:35:27;;;;;;;20.90;14.75;;;;;;;16.91;69.89;99800.41;4097241;34;20477;31
2021/04/03 07:40:54;;;;;;;23.85;15.75;;;;;;;16.75;70.26;99812.44;4092261;34;20380;31
2021/04/03 07:51:13;;;;;;;18.35;14.40;;;;;;;17.55;65.60;99804.41;4007606;34;22086;31
2021/04/03 08:18:56;;;;;;;17.02;14.05;;;;;;;19.28;60.11;99800.25;4078329;34;20024;31
2021/04/03 08:31:46;;;;;;;14.52;12.77;;;;;;;18.04;62.62;99809.06;3976207;34;20942;31
2021/04/03 08:46:42;;;;;;;15.57;13.40;;;;;;;18.27;62.86;99784.47;3922260;34;20379;31
2021/04/03 08:49:12;;;;;;;15.73;13.98;;;;;;;19.14;60.68;99787.44;4077730;34;20239;31
2021/04/03 08:52:03;;;;;;;21.80;14.57;;;;;;;19.49;60.92;99789.34;4084477;34;20070;31
2021/04/03 08:57:29;;;;;;;16.85;13.40;;;;;;;20.16;58.57;99785.53;4098542;34;20028;31
2021/04/03 09:14:54;;;;;;;18.60;14.25;;;;;;;19.89;57.14;99766.81;3992338;34;20432;31
2021/04/03 09:17:48;;;;;;;13.73;11.85;;;;;;;19.20;59.94;99771.56;4025951;34;20061;31
2021/04/03 09:25:37;;;;;;;13.20;10.30;;;;;;;20.38;54.80;99770.19;4099159;34;20575;31
2021/04/03 09:36:09;;;;;;;13.05;10.10;;;;;;;21.24;51.85;99779.34;4095105;34;20134;31
2021/04/03 09:54:01;;;;;;;13.80;11.15;;;;;;;20.64;53.35;99752.81;4090202;34;20038;31
2021/04/03 10:09:17;;;;;;;13.30;10.60;;;;;;;22.06;51.76;99742.78;4088816;34;19923;31
2021/04/03 10:17:05;;;;;;;11.70;8.80;;;;;;;21.82;52.17;99726.59;4075145;34;20705;31
2021/04/03 10:32:23;;;;;;;10.95;8.07;;;;;;;21.54;49.98;99704.59;4075908;34;21014;31
2021/04/03 10:49:47;;;;;;;15.23;9.90;;;;;;;22.46;50.74;99652.31;4079558;34;20077;31
2021/04/03 10:52:39;;;;;;;13.43;9.50;;;;;;;22.85;49.84;99664.59;4069195;34;20065;31
2021/04/03 11:03:19;;;;;;;13.30;10.10;;;;;;;23.14;48.83;99643.97;4078237;34;20153;31
2021/04/03 11:10:46;;;;;;;13.32;9.40;;;;;;;23.70;47.29;99603.59;4078172;34;22151;31
2021/04/03 11:38:30;;;;;;;11.60;9.00;;;;;;;21.90;49.27;99573.22;4061086;34;21221;31
2021/04/03 11:48:48;;;;;;;11.65;8.48;;;;;;;23.79;44.42;99544.84;4079527;34;20535;31
2021/04/03 11:59:06;;;;;;;12.45;8.35;;;;;;;24.24;43.06;99545.09;4077268;34;20062;31
2021/04/03 12:06:33;;;;;;;9.02;6.55;;;;;;;22.51;45.10;99523.19;4078374;34;20032;31
2021/04/03 12:09:24;;;;;;;12.45;7.60;;;;;;;23.50;43.96;99544.81;4068812;34;20032;31
2021/04/03 12:27:30;;;;;;;11.32;7.65;;;;;;;24.40;42.54;99506.34;4072755;34;20604;31
2021/04/03 12:35:19;;;;;;;12.60;7.90;;;;;;;23.30;45.72;99486.03;4083307;34;20602;31
2021/04/03 12:57:41;;;;;;;10.50;7.90;;;;;;;23.67;44.53;99432.50;4035121;34;20024;31
2021/04/03 13:00:32;;;;;;;13.15;8.32;;;;;;;23.95;45.14;99454.19;4062460;34;20029;31
2021/04/03 13:15:26;;;;;;;12.25;7.85;;;;;;;21.87;49.15;99418.16;4080715;34;22251;31
2021/04/03 13:18:16;;;;;;;12.00;8.50;;;;;;;22.47;48.52;99423.31;4054931;34;20190;31
2021/04/03 13:31:27;;;;;;;12.93;8.00;;;;;;;22.54;47.64;99398.50;4076491;34;20149;31
2021/04/03 13:38:55;;;;;;;13.98;8.75;;;;;;;22.51;46.41;99392.78;4077282;34;20624;31
2021/04/03 14:06:37;;;;;;;11.50;8.20;;;;;;;21.75;49.28;99370.78;4075466;34;20153;31
2021/04/03 14:14:05;;;;;;;13.40;9.00;;;;;;;21.66;49.77;99329.31;4076965;34;22306;31
2021/04/03 14:16:55;;;;;;;12.65;8.70;;;;;;;21.79;50.39;99342.88;4064779;34;20052;31
2021/04/03 14:29:42;;;;;;;12.15;10.05;;;;;;;20.40;57.40;99398.19;4075837;34;20507;31
2021/04/03 14:35:03;;;;;;;14.47;9.80;;;;;;;19.62;59.87;99405.03;4075890;34;20583;31
2021/04/03 14:40:22;;;;;;;11.25;10.02;;;;;;;19.59;60.85;99408.63;4077510;34;20549;31
2021/04/03 14:58:08;;;;;;;14.15;9.25;;;;;;;18.84;61.36;99437.34;4076436;34;20141;31
2021/04/03 15:05:36;;;;;;;13.85;10.30;;;;;;;19.03;61.61;99451.38;4082996;34;22202;31
2021/04/03 15:12:59;;;;;;;18.58;11.25;;;;;;;18.74;62.76;99436.34;3566006;40;20303;-70
2021/04/03 15:22:52;;;;;;;17.48;11.93;;;;;;;17.86;64.74;99464.72;3566269;40;20293;-70
2021/04/03 15:33:10;;;;;;;12.52;8.70;;;;;;;17.50;63.72;99503.09;4080092;34;20039;31
2021/04/03 15:35:37;;;;;;;12.90;8.50;;;;;;;17.47;66.18;99495.56;3564704;40;20069;-70
2021/04/03 15:38:02;;;;;;;18.05;6.47;;;;;;;16.49;70.30;99512.78;3569273;40;20417;-69
2021/04/03 15:40:28;;;;;;;12.00;7.55;;;;;;;16.29;73.97;99507.97;3576270;40;20069;-68
2021/04/03 15:47:52;;;;;;;11.13;7.28;;;;;;;15.80;77.88;99498.91;3554720;40;20509;-70
2021/04/03 15:53:11;;;;;;;14.23;9.33;;;;;;;16.13;77.47;99514.91;4043167;34;20390;31
2021/04/03 16:05:37;;;;;;;17.17;10.17;;;;;;;14.91;82.13;99479.09;4006334;34;20050;31
2021/04/03 16:08:06;;;;;;;15.15;11.85;;;;;;;15.58;82.71;99496.72;4016858;34;20037;31
2021/04/03 16:15:36;;;;;;;19.02;12.82;;;;;;;14.60;84.91;99531.03;3557007;40;20283;-71
2021/04/03 16:18:08;;;;;;;18.85;11.98;;;;;;;14.46;84.42;99530.09;3559060;40;20620;-69
2021/04/03 16:23:04;;;;;;;20.98;14.48;;;;;;;14.32;85.13;99530.78;3565771;40;20093;-71
2021/04/03 16:25:31;;;;;;;20.73;15.30;;;;;;;14.46;84.15;99542.91;3565670;40;20066;-71
2021/04/03 16:27:58;;;;;;;18.50;12.43;;;;;;;14.19;85.12;99549.34;3565767;40;20416;-72
2021/04/03 16:30:24;;;;;;;17.88;13.65;;;;;;;14.86;82.56;99569.78;3556302;40;20265;-71
2021/04/03 16:35:21;;;;;;;18.92;13.38;;;;;;;14.98;81.86;99576.84;3563335;40;20577;-72
2021/04/03 16:37:50;;;;;;;23.13;15.35;;;;;;;14.90;81.26;99554.22;3560519;40;20141;-71
2021/04/03 16:40:16;;;;;;;21.23;13.15;;;;;;;14.64;80.95;99568.34;3566094;40;20054;-71
2021/04/03 16:42:42;;;;;;;21.10;15.80;;;;;;;15.14;80.22;99564.88;3570448;40;20061;-71
2021/04/03 16:45:09;;;;;;;33.25;22.65;;;;;;;14.88;81.24;99561.13;3564368;40;20059;-69
2021/04/03 16:47:37;;;;;;;21.95;17.63;;;;;;;14.77;81.28;99568.56;3559405;40;20161;-71
2021/04/03 16:50:05;;;;;;;21.10;15.77;;;;;;;14.86;81.00;99577.47;3559246;40;20416;-71
2021/04/03 16:52:31;;;;;;;16.65;12.55;;;;;;;15.16;78.47;99566.47;3570949;40;20155;-69
2021/04/03 16:54:56;;;;;;;16.60;13.13;;;;;;;15.39;76.95;99568.59;3566173;40;20128;-70
2021/04/03 16:57:22;;;;;;;18.40;12.88;;;;;;;15.01;76.79;99551.09;3559093;40;20294;-71
2021/04/03 16:59:47;;;;;;;27.10;17.02;;;;;;;14.39;83.23;99562.00;3558893;40;20392;-72
2021/04/03 17:02:13;;;;;;;22.30;15.88;;;;;;;14.37;83.95;99562.09;3555202;40;20469;-70
2021/04/03 17:04:40;;;;;;;21.63;15.90;;;;;;;14.48;82.95;99570.03;3556919;40;20145;-70
2021/04/03 17:07:08;;;;;;;18.02;13.13;;;;;;;14.48;82.79;99567.47;3570319;40;20092;-69
2021/04/03 17:09:34;;;;;;;17.42;12.40;;;;;;;14.19;83.96;99560.41;3571914;40;20058;-72
2021/04/03 17:12:00;;;;;;;17.25;13.30;;;;;;;14.39;82.05;99567.94;3574273;40;20064;-71
2021/04/03 17:14:25;;;;;;;17.98;12.82;;;;;;;14.69;81.53;99566.41;3559867;40;20381;-69
2021/04/03 17:16:53;;;;;;;17.95;13.82;;;;;;;14.51;80.62;99567.34;3567741;40;20145;-68
2021/04/03 17:19:19;;;;;;;19.75;13.73;;;;;;;14.91;79.66;99578.91;3570960;40;20085;-72
2021/04/03 17:21:44;;;;;;;17.65;13.73;;;;;;;14.71;79.46;99579.94;3572245;40;20073;-71
2021/04/03 17:24:10;;;;;;;17.27;13.75;;;;;;;14.57;80.16;99590.06;3572473;40;20650;-71
2021/04/03 17:31:34;;;;;;;22.95;13.15;;;;;;;14.47;81.42;99621.28;3558065;40;20066;-70
2021/04/03 17:34:00;;;;;;;22.90;16.40;;;;;;;14.72;82.69;99655.78;3563193;40;20037;-70
2021/04/03 17:36:26;;;;;;;70.50;46.92;;;;;;;14.98;79.14;99658.75;3558511;40;20053;-70
2021/04/03 17:38:51;;;;;;;58.38;36.13;;;;;;;15.13;81.56;99666.47;3559677;40;20304;-69
2021/04/03 17:41:17;;;;;;;26.50;17.20;;;;;;;14.35;87.04;99660.22;3554262;40;20062;-68
2021/04/03 17:43:42;;;;;;;24.35;16.00;;;;;;;14.47;88.26;99650.25;3564352;40;20068;-68
2021/04/03 17:46:08;;;;;;;24.65;14.75;;;;;;;14.66;85.85;99652.69;3566007;40;20163;-68
2021/04/03 17:51:04;;;;;;;30.63;19.08;;;;;;;14.26;88.82;99666.56;3551142;40;20424;-73
2021/04/03 17:58:29;;;;;;;24.00;17.70;;;;;;;14.19;86.98;99657.56;3557255;40;20204;-70
2021/04/03 18:03:24;;;;;;;21.60;15.40;;;;;;;13.88;89.30;99672.69;3567172;40;20073;-68
2021/04/03 18:05:50;;;;;;;21.63;15.48;;;;;;;14.00;88.69;99666.16;3558696;40;20039;-69
2021/04/03 18:08:16;;;;;;;20.05;16.05;;;;;;;14.19;89.88;99659.28;3557301;40;20180;-70
2021/04/03 18:10:43;;;;;;;24.38;17.42;;;;;;;14.05;89.96;99672.72;3557568;40;20206;-69
2021/04/03 18:13:08;;;;;;;25.35;19.58;;;;;;;13.99;90.16;99679.84;3539070;40;20332;-69
2021/04/03 18:15:34;;;;;;;25.02;17.95;;;;;;;13.82;90.24;99681.47;3538135;40;20497;-69
2021/04/03 18:18:00;;;;;;;37.33;28.10;;;;;;;13.73;90.94;99681.03;3524854;40;20142;-68
2021/04/03 18:20:26;;;;;;;28.38;21.23;;;;;;;14.18;89.00;99678.09;3528144;40;20082;-68
2021/04/03 18:22:55;;;;;;;20.75;15.85;;;;;;;13.82;90.77;99678.91;3528188;40;20131;-68
2021/04/03 18:25:21;;;;;;;22.15;18.52;;;;;;;13.55;92.65;99666.53;3530369;40;20142;-71
2021/04/03 18:27:50;;;;;;;20.25;15.32;;;;;;;13.64;91.94;99684.03;3807332;34;20081;-70
2021/04/03 18:30:18;;;;;;;16.33;12.95;;;;;;;13.27;93.51;99674.59;3568314;40;20545;-70
2021/04/03 18:32:48;;;;;;;17.15;12.93;;;;;;;13.14;93.38;99665.00;3556411;40;20058;-71
2021/04/03 18:40:14;;;;;;;14.57;10.98;;;;;;;13.32;93.62;99689.72;4020535;34;20075;31
2021/04/03 18:42:44;;;;;;;15.60;11.43;;;;;;;13.20;93.78;99670.66;4055702;34;20021;31
2021/04/03 18:50:13;;;;;;;19.15;13.63;;;;;;;13.83;93.79;99689.94;3559371;40;20058;-70
2021/04/03 18:52:39;;;;;;;16.15;11.93;;;;;;;13.47;92.82;99692.44;3554629;40;20045;-71
2021/04/03 18:57:34;;;;;;;18.15;14.55;;;;;;;13.84;93.18;99687.31;3569642;40;20085;-68
2021/04/03 19:00:03;;;;;;;17.65;13.38;;;;;;;13.68;95.32;99726.41;3571535;40;20167;-69
2021/04/03 19:02:29;;;;;;;18.05;12.65;;;;;;;13.52;95.45;99720.31;3558486;40;20069;-71
2021/04/03 19:04:54;;;;;;;21.30;12.63;;;;;;;13.89;94.73;99710.09;3574146;40;20062;-70
2021/04/03 19:14:19;;;;;;;22.85;16.50;;;;;;;13.60;94.09;99723.38;3638614;39;20410;-71
2021/04/03 19:16:45;;;;;;;18.88;14.55;;;;;;;13.40;94.51;99726.81;3556028;39;863407;-70
2021/04/03 19:21:39;;;;;;;19.55;13.18;;;;;;;13.24;95.97;99723.25;3604818;39;20064;-71
2021/04/03 19:29:32;;;;;;;20.42;14.07;;;;;;;14.21;96.42;99722.22;3785407;22;20094;-73
2021/04/03 19:31:59;;;;;;;21.35;13.70;;;;;;;13.29;95.85;99706.00;3608174;39;20085;-70
2021/04/03 19:34:25;;;;;;;20.50;13.55;;;;;;;13.41;96.72;99713.13;3617407;39;20040;-68
2021/04/03 19:56:45;;;;;;;22.85;14.75;;;;;;;13.44;96.00;99714.72;3727711;22;20487;-75
2021/04/03 20:02:25;;;;;;;20.90;15.23;;;;;;;13.36;96.57;99725.28;3754629;22;20680;-73
2021/04/03 20:17:20;;;;;;;28.23;20.48;;;;;;;13.22;98.89;99711.44;3703187;22;20281;-72
2021/04/03 20:19:49;;;;;;;26.80;19.98;;;;;;;13.64;97.00;99723.19;3796321;22;20044;-72
2021/04/03 20:22:40;;;;;;;26.13;19.40;;;;;;;13.32;97.78;99722.91;3731445;22;20060;-73
2021/04/03 20:30:20;;;;;;;26.20;19.08;;;;;;;13.17;98.34;99698.06;3671377;22;21452;-73